Time;durP1;ratioP1;P1;durP2;ratioP2;P2;SDS_P1;SDS_P2;PMS_P1;PMS_P2;Temp;Humidity;BMP_temperature;BMP_pressure;BME280_temperature;BME280_humidity;BME280_pressure;Samples;Min_cycle;Max_cycle;Signal;HPM_P1;HPM_P2
2023/01/28 00:00:30;;;;;;;5.18;2.00;;;;;;;;;;5038790;28;20048;-83
2023/01/28 00:02:55;;;;;;;13.38;2.28;;;;;;;;;;5043231;28;20040;-84
2023/01/28 00:05:22;;;;;;;8.40;2.17;;;;;;;;;;5007802;28;20527;-83
2023/01/28 00:07:48;;;;;;;5.00;1.70;;;;;;;;;;5019767;28;20158;-84
2023/01/28 00:10:14;;;;;;;3.97;1.83;;;;;;;;;;5033532;28;20044;-83
2023/01/28 00:12:40;;;;;;;4.60;1.58;;;;;;;;;;5026896;28;20036;-82
2023/01/28 00:15:06;;;;;;;4.93;1.55;;;;;;;;;;5034765;28;20037;-83
2023/01/28 00:17:31;;;;;;;3.92;1.63;;;;;;;;;;5022152;28;20111;-83
2023/01/28 00:19:57;;;;;;;5.22;1.70;;;;;;;;;;5024500;28;20032;-83
2023/01/28 00:22:23;;;;;;;4.88;1.65;;;;;;;;;;5029781;28;20033;-83
2023/01/28 00:24:48;;;;;;;5.53;1.60;;;;;;;;;;5022067;28;20092;-84
2023/01/28 00:27:13;;;;;;;6.78;1.67;;;;;;;;;;5037798;28;20496;-84
2023/01/28 00:29:39;;;;;;;4.50;1.90;;;;;;;;;;5029325;28;20428;-83
2023/01/28 00:32:05;;;;;;;3.72;1.75;;;;;;;;;;5032064;28;20069;-84
2023/01/28 00:34:30;;;;;;;5.80;1.88;;;;;;;;;;5029115;28;20365;-83
2023/01/28 00:36:58;;;;;;;6.95;2.00;;;;;;;;;;5021385;28;20088;-82
2023/01/28 00:39:25;;;;;;;6.13;1.85;;;;;;;;;;5040024;28;20041;-83
2023/01/28 00:41:51;;;;;;;5.55;1.77;;;;;;;;;;5059924;28;20033;-82
2023/01/28 00:44:17;;;;;;;5.75;2.17;;;;;;;;;;5051766;28;20043;-83
2023/01/28 00:46:43;;;;;;;4.57;1.92;;;;;;;;;;5044888;28;20400;-82
2023/01/28 00:49:09;;;;;;;4.30;1.77;;;;;;;;;;5041426;28;20049;-83
2023/01/28 00:51:35;;;;;;;5.47;2.22;;;;;;;;;;5040583;28;20087;-83
2023/01/28 00:54:00;;;;;;;3.22;1.52;;;;;;;;;;5045446;28;20035;-83
2023/01/28 00:56:26;;;;;;;4.93;2.10;;;;;;;;;;5068569;28;20028;-82
2023/01/28 00:58:51;;;;;;;6.32;2.10;;;;;;;;;;5067645;28;20574;-82
2023/01/28 01:01:19;;;;;;;5.15;2.10;;;;;;;;;;5039328;28;20041;-82
2023/01/28 01:03:45;;;;;;;5.47;2.08;;;;;;;;;;5042228;28;20036;-84
2023/01/28 01:06:12;;;;;;;5.72;1.50;;;;;;;;;;5063912;28;20517;-82
2023/01/28 01:08:41;;;;;;;6.33;2.47;;;;;;;;;;5053447;28;20033;-83
2023/01/28 01:11:08;;;;;;;5.32;1.83;;;;;;;;;;5050777;28;20275;-82
2023/01/28 01:13:35;;;;;;;4.20;1.90;;;;;;;;;;5063137;28;20106;-82
2023/01/28 01:16:11;;;;;;;4.53;1.80;;;;;;;;;;5045507;28;20037;-83
2023/01/28 01:18:40;;;;;;;4.82;2.00;;;;;;;;;;5064223;28;20087;-81
2023/01/28 01:21:10;;;;;;;4.53;1.83;;;;;;;;;;5047969;28;20039;-84
2023/01/28 01:23:36;;;;;;;5.07;2.15;;;;;;;;;;5038033;28;20025;-84
2023/01/28 01:26:03;;;;;;;7.53;1.88;;;;;;;;;;5047134;28;20102;-84
2023/01/28 01:28:29;;;;;;;4.70;2.22;;;;;;;;;;5046860;28;20403;-82
2023/01/28 01:31:02;;;;;;;5.43;2.13;;;;;;;;;;5041611;28;20099;-83
2023/01/28 01:33:29;;;;;;;5.85;2.30;;;;;;;;;;5058246;28;20041;-82
2023/01/28 01:35:55;;;;;;;4.88;1.60;;;;;;;;;;5064028;28;20044;-82
2023/01/28 01:38:20;;;;;;;7.05;2.30;;;;;;;;;;5047328;28;20111;-83
2023/01/28 01:40:46;;;;;;;4.40;2.20;;;;;;;;;;5045713;28;20029;-82
2023/01/28 01:43:21;;;;;;;3.92;1.85;;;;;;;;;;5057160;28;20048;-82
2023/01/28 01:45:54;;;;;;;4.63;2.22;;;;;;;;;;5038170;28;20068;-82
2023/01/28 01:48:28;;;;;;;5.95;2.13;;;;;;;;;;5022460;28;20045;-83
2023/01/28 01:51:07;;;;;;;5.47;2.28;;;;;;;;;;5047655;28;20037;-82
2023/01/28 01:53:40;;;;;;;6.28;2.40;;;;;;;;;;5024875;28;20033;-82
2023/01/28 01:56:08;;;;;;;4.93;2.05;;;;;;;;;;5052358;28;20037;-82
2023/01/28 01:58:36;;;;;;;7.30;2.30;;;;;;;;;;5046612;28;20043;-83
2023/01/28 02:01:02;;;;;;;4.65;1.90;;;;;;;;;;5053845;28;20481;-82
2023/01/28 02:03:32;;;;;;;4.95;2.15;;;;;;;;;;5068232;28;20037;-81
2023/01/28 02:05:58;;;;;;;5.55;1.98;;;;;;;;;;5054688;28;20035;-82
2023/01/28 02:08:24;;;;;;;5.13;1.83;;;;;;;;;;5065047;28;20037;-83
2023/01/28 02:11:02;;;;;;;6.05;2.15;;;;;;;;;;5045784;28;20044;-83
2023/01/28 02:13:30;;;;;;;3.90;1.63;;;;;;;;;;5065393;28;20566;-83
2023/01/28 02:15:57;;;;;;;5.03;1.83;;;;;;;;;;5053405;28;20032;-83
2023/01/28 02:18:23;;;;;;;3.78;1.75;;;;;;;;;;5047709;28;20404;-83
2023/01/28 02:20:57;;;;;;;3.95;1.98;;;;;;;;;;5038993;28;20052;-82
2023/01/28 02:23:59;;;;;;;4.03;1.73;;;;;;;;;;5053582;28;20095;-83
2023/01/28 02:26:33;;;;;;;4.32;1.83;;;;;;;;;;5035273;28;20039;-82
2023/01/28 02:29:11;;;;;;;5.38;1.90;;;;;;;;;;5055391;28;20105;-82
2023/01/28 02:31:51;;;;;;;4.43;2.20;;;;;;;;;;5055279;28;20039;-82
2023/01/28 02:34:25;;;;;;;5.10;1.85;;;;;;;;;;5046652;28;20037;-82
2023/01/28 02:36:54;;;;;;;4.55;1.75;;;;;;;;;;5052682;28;20049;-81
2023/01/28 02:39:25;;;;;;;6.43;2.42;;;;;;;;;;5038638;28;20131;-81
2023/01/28 02:41:55;;;;;;;4.72;2.03;;;;;;;;;;5037752;28;20400;-83
2023/01/28 02:44:21;;;;;;;6.40;1.95;;;;;;;;;;5055680;28;20029;-82
2023/01/28 02:49:40;;;;;;;3.90;1.75;;;;;;;;;;5055342;28;20071;-83
2023/01/28 02:52:18;;;;;;;6.45;1.50;;;;;;;;;;5022724;28;20924;-83
2023/01/28 02:55:02;;;;;;;4.60;1.73;;;;;;;;;;5036233;28;20037;-83
2023/01/28 02:58:05;;;;;;;4.60;1.73;;;;;;;;;;5052324;28;20033;-81
2023/01/28 03:00:37;;;;;;;5.97;1.73;;;;;;;;;;5029853;28;20032;-82
2023/01/28 03:03:28;;;;;;;3.60;1.80;;;;;;;;;;5053658;28;20029;-83
2023/01/28 03:06:06;;;;;;;3.95;1.70;;;;;;;;;;5055072;28;20124;-82
2023/01/28 03:39:02;;;;;;;5.20;1.88;;;;;;;;;;5053223;28;20511;-82
2023/01/28 03:41:28;;;;;;;4.70;2.22;;;;;;;;;;5020386;28;20025;-83
2023/01/28 03:43:54;;;;;;;4.50;1.80;;;;;;;;;;5031483;28;20043;-83
2023/01/28 03:46:20;;;;;;;5.20;1.65;;;;;;;;;;5048306;28;20047;-84
2023/01/28 03:48:45;;;;;;;3.20;1.50;;;;;;;;;;5036451;28;20037;-82
2023/01/28 03:51:11;;;;;;;4.45;1.85;;;;;;;;;;5049084;28;20068;-83
2023/01/28 03:53:38;;;;;;;5.00;1.90;;;;;;;;;;5049863;28;20394;-82
2023/01/28 03:56:04;;;;;;;3.85;1.55;;;;;;;;;;5047258;28;20029;-82
2023/01/28 04:01:32;;;;;;;4.32;1.50;;;;;;;;;;4957898;28;20039;-81
2023/01/28 04:03:58;;;;;;;4.60;1.73;;;;;;;;;;4971574;28;20105;-81
2023/01/28 04:06:23;;;;;;;3.17;1.50;;;;;;;;;;4949294;28;20042;-82
2023/01/28 04:08:52;;;;;;;4.53;1.67;;;;;;;;;;4958755;28;20145;-82
2023/01/28 04:11:20;;;;;;;3.58;1.70;;;;;;;;;;4939595;28;20043;-83
2023/01/28 04:13:46;;;;;;;4.68;1.60;;;;;;;;;;4940202;28;20047;-81
2023/01/28 04:16:13;;;;;;;3.60;2.00;;;;;;;;;;4953274;28;20388;-83
2023/01/28 04:18:38;;;;;;;4.72;1.70;;;;;;;;;;4951917;28;20039;-83
2023/01/28 04:21:04;;;;;;;4.85;1.90;;;;;;;;;;4950375;28;21174;-83
2023/01/28 04:23:29;;;;;;;4.25;1.73;;;;;;;;;;4950508;28;20041;-84
2023/01/28 04:25:55;;;;;;;4.97;1.88;;;;;;;;;;4946458;28;20426;-83
2023/01/28 04:28:21;;;;;;;3.67;1.77;;;;;;;;;;4971156;28;20038;-84
2023/01/28 04:30:46;;;;;;;4.32;1.75;;;;;;;;;;4952780;28;20466;-82
2023/01/28 04:33:12;;;;;;;4.05;1.38;;;;;;;;;;4996035;28;20053;-83
2023/01/28 04:35:37;;;;;;;4.50;1.50;;;;;;;;;;5044708;28;20397;-82
2023/01/28 04:38:03;;;;;;;4.32;1.48;;;;;;;;;;5046950;28;20051;-82
2023/01/28 04:40:28;;;;;;;3.00;1.45;;;;;;;;;;5046595;28;20037;-82
2023/01/28 04:42:54;;;;;;;3.55;1.20;;;;;;;;;;5058525;28;20429;-82
2023/01/28 04:45:20;;;;;;;3.35;1.55;;;;;;;;;;5057320;28;20831;-83
2023/01/28 04:47:46;;;;;;;3.25;1.55;;;;;;;;;;5052373;28;20041;-82
2023/01/28 04:50:11;;;;;;;2.40;1.35;;;;;;;;;;5020219;28;20041;-82
2023/01/28 04:52:37;;;;;;;3.42;1.50;;;;;;;;;;5045839;28;20033;-83
2023/01/28 04:55:02;;;;;;;3.15;1.30;;;;;;;;;;5026671;28;20037;-83
2023/01/28 04:57:28;;;;;;;3.53;1.35;;;;;;;;;;5036110;28;20029;-81
2023/01/28 04:59:53;;;;;;;4.10;1.48;;;;;;;;;;5049024;28;20044;-82
2023/01/28 05:02:18;;;;;;;2.72;1.20;;;;;;;;;;5043071;28;20181;-84
2023/01/28 05:04:44;;;;;;;4.40;1.58;;;;;;;;;;5036505;28;20028;-83
2023/01/28 05:07:09;;;;;;;3.63;1.20;;;;;;;;;;5042800;28;20386;-82
2023/01/28 05:09:35;;;;;;;2.78;1.40;;;;;;;;;;5027970;28;20048;-83
2023/01/28 05:12:01;;;;;;;4.47;1.20;;;;;;;;;;5039809;28;20025;-82
2023/01/28 05:14:27;;;;;;;3.30;1.20;;;;;;;;;;5034968;28;20063;-82
2023/01/28 05:16:52;;;;;;;2.70;1.30;;;;;;;;;;5039308;28;20033;-83
2023/01/28 05:19:18;;;;;;;2.45;1.20;;;;;;;;;;5033063;28;20044;-83
2023/01/28 05:21:43;;;;;;;3.30;1.25;;;;;;;;;;5049255;28;20098;-84
2023/01/28 05:24:08;;;;;;;2.40;1.08;;;;;;;;;;5027641;28;20053;-84
2023/01/28 05:26:34;;;;;;;2.90;1.33;;;;;;;;;;5049170;28;20032;-83
2023/01/28 05:28:59;;;;;;;4.20;1.33;;;;;;;;;;5029577;28;20033;-82
2023/01/28 05:31:25;;;;;;;3.10;1.20;;;;;;;;;;5018212;28;20043;-82
2023/01/28 05:33:51;;;;;;;3.90;1.35;;;;;;;;;;5047108;28;20113;-82
2023/01/28 05:36:17;;;;;;;3.90;1.40;;;;;;;;;;5033392;28;20047;-82
2023/01/28 05:38:43;;;;;;;2.58;1.20;;;;;;;;;;5057823;28;20038;-83
2023/01/28 05:41:08;;;;;;;5.40;1.60;;;;;;;;;;5041158;28;20036;-83
2023/01/28 05:43:34;;;;;;;5.20;1.75;;;;;;;;;;5052199;28;20044;-83
2023/01/28 05:45:59;;;;;;;2.92;1.50;;;;;;;;;;5059077;28;20033;-81
2023/01/28 05:48:24;;;;;;;4.43;1.75;;;;;;;;;;5035576;28;20047;-83
2023/01/28 05:50:50;;;;;;;4.85;1.90;;;;;;;;;;5041526;28;20032;-83
2023/01/28 05:53:15;;;;;;;5.85;1.60;;;;;;;;;;5029706;28;20040;-83
2023/01/28 05:55:41;;;;;;;2.90;1.45;;;;;;;;;;5037843;28;20094;-83
2023/01/28 05:58:06;;;;;;;3.75;1.58;;;;;;;;;;5031240;28;20064;-83
2023/01/28 06:00:32;;;;;;;4.40;1.88;;;;;;;;;;5024325;28;20492;-82
2023/01/28 06:02:57;;;;;;;6.30;2.17;;;;;;;;;;5025174;28;20032;-82
2023/01/28 06:05:23;;;;;;;4.13;2.00;;;;;;;;;;5049902;28;20041;-83
2023/01/28 06:07:49;;;;;;;4.85;2.15;;;;;;;;;;5052160;28;20041;-82
2023/01/28 06:10:18;;;;;;;6.47;2.70;;;;;;;;;;5032835;28;20586;-82
2023/01/28 06:12:43;;;;;;;7.30;3.63;;;;;;;;;;5052843;28;20851;-82
2023/01/28 06:15:09;;;;;;;8.23;3.80;;;;;;;;;;5048530;28;20046;-83
2023/01/28 06:17:35;;;;;;;8.13;3.80;;;;;;;;;;5032618;28;20090;-82
2023/01/28 06:20:00;;;;;;;6.47;3.20;;;;;;;;;;5050991;28;20029;-83
2023/01/28 06:22:25;;;;;;;7.78;3.63;;;;;;;;;;5045042;28;20032;-83
2023/01/28 06:24:51;;;;;;;9.43;3.92;;;;;;;;;;5032806;28;20116;-84
2023/01/28 06:27:16;;;;;;;8.60;4.03;;;;;;;;;;5022183;28;20147;-83
2023/01/28 06:29:42;;;;;;;7.72;3.65;;;;;;;;;;5050357;28;20033;-84
2023/01/28 06:32:07;;;;;;;9.65;4.18;;;;;;;;;;5053498;28;20044;-84
2023/01/28 06:34:32;;;;;;;9.15;3.67;;;;;;;;;;5047794;28;20103;-82
2023/01/28 06:36:58;;;;;;;8.40;3.83;;;;;;;;;;5025326;28;20045;-83
2023/01/28 06:39:25;;;;;;;7.68;3.83;;;;;;;;;;5050244;28;20542;-82
2023/01/28 06:41:51;;;;;;;9.27;4.22;;;;;;;;;;5029672;28;20120;-83
2023/01/28 06:44:16;;;;;;;9.80;3.92;;;;;;;;;;5031457;28;20452;-84
2023/01/28 06:46:42;;;;;;;10.15;4.30;;;;;;;;;;5024163;28;20036;-84
2023/01/28 06:49:07;;;;;;;9.05;4.68;;;;;;;;;;5038197;28;20048;-83
2023/01/28 06:51:33;;;;;;;9.82;4.90;;;;;;;;;;5031570;28;20029;-83
2023/01/28 06:53:58;;;;;;;12.98;4.90;;;;;;;;;;5039338;28;20033;-83
2023/01/28 06:56:24;;;;;;;9.82;4.32;;;;;;;;;;5039432;28;20051;-84
2023/01/28 06:58:49;;;;;;;7.03;3.40;;;;;;;;;;5030877;28;20029;-83
2023/01/28 07:01:15;;;;;;;6.85;3.40;;;;;;;;;;5041374;28;20071;-84
2023/01/28 07:03:40;;;;;;;6.25;3.05;;;;;;;;;;5035829;28;20029;-84
2023/01/28 07:06:26;;;;;;;6.88;2.83;;;;;;;;;;5020813;28;20060;-84
2023/01/28 07:09:12;;;;;;;6.55;3.00;;;;;;;;;;5008967;28;20482;-85
2023/01/28 07:11:37;;;;;;;6.18;2.53;;;;;;;;;;4971079;28;20605;-86
2023/01/28 07:14:03;;;;;;;6.18;2.92;;;;;;;;;;4954043;28;20035;-85
2023/01/28 07:16:29;;;;;;;7.50;2.65;;;;;;;;;;4954349;28;20026;-84
2023/01/28 07:18:54;;;;;;;4.03;1.95;;;;;;;;;;4970049;28;20081;-85
2023/01/28 07:21:20;;;;;;;4.07;1.90;;;;;;;;;;4967381;28;20046;-85
2023/01/28 07:23:45;;;;;;;4.07;1.75;;;;;;;;;;4948312;28;20223;-84
2023/01/28 07:26:33;;;;;;;5.53;2.40;;;;;;;;;;4950901;28;20035;-85
2023/01/28 07:28:59;;;;;;;4.78;2.45;;;;;;;;;;4923404;28;20054;-86
2023/01/28 07:31:33;;;;;;;4.40;1.90;;;;;;;;;;4923867;28;20042;-84
2023/01/28 07:33:59;;;;;;;5.20;2.33;;;;;;;;;;4932929;28;20113;-85
2023/01/28 07:36:27;;;;;;;6.30;2.35;;;;;;;;;;4963504;28;20125;-83
2023/01/28 07:38:53;;;;;;;5.78;2.80;;;;;;;;;;4931655;28;20521;-85
2023/01/28 07:41:21;;;;;;;4.85;2.40;;;;;;;;;;4954456;28;20053;-84
2023/01/28 07:43:46;;;;;;;4.70;2.17;;;;;;;;;;4958072;28;20116;-83
2023/01/28 07:46:12;;;;;;;3.95;1.95;;;;;;;;;;4962061;28;20046;-84
2023/01/28 07:48:40;;;;;;;3.58;1.75;;;;;;;;;;4982632;28;20044;-84
2023/01/28 07:51:09;;;;;;;4.45;2.00;;;;;;;;;;5007235;28;20071;-84
2023/01/28 07:53:35;;;;;;;4.47;2.00;;;;;;;;;;5026553;28;20045;-86
2023/01/28 07:56:05;;;;;;;4.95;1.80;;;;;;;;;;5009173;28;20087;-84
2023/01/28 07:58:33;;;;;;;4.82;1.70;;;;;;;;;;5040427;28;20550;-83
2023/01/28 08:01:02;;;;;;;4.18;2.20;;;;;;;;;;5045893;28;20071;-85
2023/01/28 08:03:28;;;;;;;2.83;1.40;;;;;;;;;;5026573;28;20044;-85
2023/01/28 08:05:55;;;;;;;3.55;1.52;;;;;;;;;;5026621;28;20531;-84
2023/01/28 08:08:22;;;;;;;3.95;1.50;;;;;;;;;;5056912;28;20624;-86
2023/01/28 08:10:48;;;;;;;4.60;1.30;;;;;;;;;;5039738;28;20131;-84
2023/01/28 08:13:14;;;;;;;3.13;1.48;;;;;;;;;;5031455;28;20037;-86
2023/01/28 08:15:42;;;;;;;3.33;1.50;;;;;;;;;;5033663;28;20033;-85
2023/01/28 08:18:09;;;;;;;4.93;1.60;;;;;;;;;;5026228;28;20523;-85
2023/01/28 08:20:35;;;;;;;3.33;1.20;;;;;;;;;;5043191;28;20374;-88
2023/01/28 08:23:11;;;;;;;2.50;1.15;;;;;;;;;;5044881;28;20033;-88
2023/01/28 08:25:37;;;;;;;4.35;1.40;;;;;;;;;;5043783;28;20048;-86
2023/01/28 08:28:03;;;;;;;2.65;1.40;;;;;;;;;;5025040;28;21115;-84
2023/01/28 08:30:31;;;;;;;3.58;1.63;;;;;;;;;;5032686;28;20043;-86
2023/01/28 08:32:57;;;;;;;2.78;1.48;;;;;;;;;;5013899;28;20032;-83
2023/01/28 08:35:24;;;;;;;2.38;1.10;;;;;;;;;;5021923;28;20497;-84
2023/01/28 08:37:50;;;;;;;4.80;1.40;;;;;;;;;;5014168;28;20044;-86
2023/01/28 08:40:15;;;;;;;4.38;1.35;;;;;;;;;;5023524;28;20508;-86
2023/01/28 08:42:48;;;;;;;2.13;1.15;;;;;;;;;;5005168;28;20079;-85
2023/01/28 08:45:14;;;;;;;3.60;1.20;;;;;;;;;;5016498;28;20041;-84
2023/01/28 08:47:56;;;;;;;2.42;1.10;;;;;;;;;;5025010;28;20139;-85
2023/01/28 08:50:23;;;;;;;2.92;1.35;;;;;;;;;;5003105;28;20041;-88
2023/01/28 08:52:57;;;;;;;2.90;1.30;;;;;;;;;;5024102;28;20584;-89
2023/01/28 08:55:24;;;;;;;2.97;1.10;;;;;;;;;;5018324;28;20548;-88
2023/01/28 08:57:49;;;;;;;2.78;1.15;;;;;;;;;;4999441;28;20497;-91
2023/01/28 09:00:15;;;;;;;2.55;1.23;;;;;;;;;;5007298;28;20083;-87
2023/01/28 09:02:40;;;;;;;3.28;1.60;;;;;;;;;;5013037;28;20029;-87
2023/01/28 09:05:07;;;;;;;4.53;1.10;;;;;;;;;;5004436;28;20037;-87
2023/01/28 09:07:38;;;;;;;3.92;1.40;;;;;;;;;;5025771;28;20109;-88
2023/01/28 09:10:05;;;;;;;3.17;1.40;;;;;;;;;;5026156;28;20034;-88
2023/01/28 09:12:31;;;;;;;2.20;1.10;;;;;;;;;;5027910;28;20045;-91
2023/01/28 09:14:59;;;;;;;2.42;1.20;;;;;;;;;;5024288;28;20029;-86
2023/01/28 09:17:26;;;;;;;3.42;1.83;;;;;;;;;;4992600;28;20677;-88
2023/01/28 09:19:51;;;;;;;2.90;1.00;;;;;;;;;;4991206;28;20044;-80
2023/01/28 09:22:16;;;;;;;3.30;1.30;;;;;;;;;;5008386;28;20033;-80
2023/01/28 09:24:42;;;;;;;2.88;1.30;;;;;;;;;;5003839;28;20124;-81
2023/01/28 09:27:08;;;;;;;3.78;1.80;;;;;;;;;;5026074;28;20044;-81
2023/01/28 09:29:34;;;;;;;2.80;1.33;;;;;;;;;;5026151;28;20045;-80
2023/01/28 09:31:59;;;;;;;2.63;1.50;;;;;;;;;;5025320;28;20065;-79
2023/01/28 09:34:27;;;;;;;4.00;1.63;;;;;;;;;;5005325;28;20088;-81
2023/01/28 09:36:53;;;;;;;4.82;2.13;;;;;;;;;;5031235;28;20076;-81
2023/01/28 09:39:18;;;;;;;5.35;2.42;;;;;;;;;;5037488;28;20090;-80
2023/01/28 09:41:54;;;;;;;3.63;1.65;;;;;;;;;;5040849;28;20195;-80
2023/01/28 09:44:31;;;;;;;3.85;1.40;;;;;;;;;;5053222;28;20103;-80
2023/01/28 09:47:03;;;;;;;2.35;1.20;;;;;;;;;;5052685;28;20040;-80
2023/01/28 09:49:39;;;;;;;2.97;1.25;;;;;;;;;;5053506;28;20195;-80
2023/01/28 09:52:12;;;;;;;3.13;1.50;;;;;;;;;;5043142;28;20048;-80
2023/01/28 09:54:46;;;;;;;3.13;1.27;;;;;;;;;;5039090;28;20037;-80
2023/01/28 09:57:23;;;;;;;2.40;1.20;;;;;;;;;;5027386;28;20112;-81
2023/01/28 09:59:49;;;;;;;2.63;1.20;;;;;;;;;;5040121;28;20060;-88
2023/01/28 10:02:31;;;;;;;2.90;1.10;;;;;;;;;;5027927;28;20040;-85
2023/01/28 10:05:36;;;;;;;3.25;0.90;;;;;;;;;;5040190;28;20033;-84
2023/01/28 10:08:16;;;;;;;3.83;0.90;;;;;;;;;;5036745;28;20040;-84
2023/01/28 10:11:04;;;;;;;3.83;1.02;;;;;;;;;;5050046;28;20033;-87
2023/01/28 10:13:50;;;;;;;2.17;0.70;;;;;;;;;;5019561;28;20094;-86
2023/01/28 10:16:34;;;;;;;2.08;0.98;;;;;;;;;;5007252;28;20098;-85
2023/01/28 10:19:26;;;;;;;2.33;0.93;;;;;;;;;;5040688;28;20610;-87
2023/01/28 10:22:16;;;;;;;2.88;0.90;;;;;;;;;;5010876;28;20041;-88
2023/01/28 10:24:48;;;;;;;1.40;0.63;;;;;;;;;;5021561;28;20518;-88
2023/01/28 10:27:18;;;;;;;3.10;1.20;;;;;;;;;;5028219;28;20504;-86
2023/01/28 10:29:48;;;;;;;2.25;0.93;;;;;;;;;;5052280;28;20033;-87
2023/01/28 10:32:33;;;;;;;2.28;0.80;;;;;;;;;;5023789;28;20137;-88
2023/01/28 10:35:00;;;;;;;1.83;0.80;;;;;;;;;;5033840;28;20034;-87
2023/01/28 10:37:26;;;;;;;2.30;0.80;;;;;;;;;;5023283;28;20719;-87
2023/01/28 10:40:32;;;;;;;2.75;0.90;;;;;;;;;;5045577;28;20106;-89
2023/01/28 10:42:58;;;;;;;1.57;1.00;;;;;;;;;;5023936;28;20341;-87
2023/01/28 10:45:30;;;;;;;1.67;0.65;;;;;;;;;;5050541;28;20322;-88
2023/01/28 10:48:01;;;;;;;3.63;0.90;;;;;;;;;;5039515;28;20051;-88
2023/01/28 10:50:31;;;;;;;2.40;0.80;;;;;;;;;;5035166;28;20116;-84
2023/01/28 10:53:02;;;;;;;1.85;0.88;;;;;;;;;;5047045;28;20038;-82
2023/01/28 10:55:50;;;;;;;4.28;0.68;;;;;;;;;;5036301;28;20040;-84
2023/01/28 10:58:19;;;;;;;1.67;0.70;;;;;;;;;;5022767;28;20058;-84
2023/01/28 11:00:45;;;;;;;1.50;0.60;;;;;;;;;;5045020;28;20103;-82
2023/01/28 11:03:20;;;;;;;3.67;0.80;;;;;;;;;;5054375;28;20040;-82
2023/01/28 11:05:50;;;;;;;1.95;0.80;;;;;;;;;;5037189;28;20111;-81
2023/01/28 11:08:17;;;;;;;3.05;0.63;;;;;;;;;;5044872;28;20045;-81
2023/01/28 11:10:43;;;;;;;1.50;0.68;;;;;;;;;;5032401;28;20492;-81
2023/01/28 11:13:27;;;;;;;2.80;0.80;;;;;;;;;;5021791;28;20071;-81
2023/01/28 11:16:02;;;;;;;3.38;1.00;;;;;;;;;;5052179;28;20075;-82
2023/01/28 11:18:34;;;;;;;2.42;0.82;;;;;;;;;;5052627;28;20033;-83
2023/01/28 11:21:13;;;;;;;2.50;0.90;;;;;;;;;;5037577;28;20075;-84
2023/01/28 11:23:53;;;;;;;3.00;0.70;;;;;;;;;;5028136;28;20033;-81
2023/01/28 11:26:22;;;;;;;2.03;0.80;;;;;;;;;;5049220;28;20040;-83
2023/01/28 11:28:47;;;;;;;2.90;0.70;;;;;;;;;;5055088;28;20518;-81
2023/01/28 11:31:15;;;;;;;1.58;0.73;;;;;;;;;;5031327;28;20043;-82
2023/01/28 11:33:49;;;;;;;1.75;0.70;;;;;;;;;;5054136;28;20037;-86
2023/01/28 11:36:21;;;;;;;2.25;0.80;;;;;;;;;;5049413;28;20079;-87
2023/01/28 11:38:51;;;;;;;3.17;0.93;;;;;;;;;;5050769;28;20039;-84
2023/01/28 11:41:40;;;;;;;2.15;0.88;;;;;;;;;;5051028;28;20059;-85
2023/01/28 11:44:18;;;;;;;1.48;0.63;;;;;;;;;;5041784;28;20143;-86
2023/01/28 11:46:55;;;;;;;2.63;0.80;;;;;;;;;;5035278;28;20048;-83
2023/01/28 11:49:51;;;;;;;0.85;0.40;;;;;;;;;;5017908;28;20488;-85
2023/01/28 11:52:27;;;;;;;1.75;0.60;;;;;;;;;;4995993;28;20061;-86
2023/01/28 11:55:11;;;;;;;1.38;0.60;;;;;;;;;;5025274;28;20040;-85
2023/01/28 11:57:41;;;;;;;1.60;0.80;;;;;;;;;;5020807;28;20037;-84
2023/01/28 12:00:34;;;;;;;1.50;0.60;;;;;;;;;;5008613;28;20519;-84
2023/01/28 12:03:20;;;;;;;2.58;0.80;;;;;;;;;;5018326;28;20123;-83
2023/01/28 12:05:49;;;;;;;2.03;0.70;;;;;;;;;;5024160;28;20554;-84
2023/01/28 12:08:36;;;;;;;1.67;0.60;;;;;;;;;;5006768;28;20132;-86
2023/01/28 12:15:01;;;;;;;1.02;0.60;;;;;;;;;;4986609;28;20041;-85
2023/01/28 12:17:48;;;;;;;1.92;0.60;;;;;;;;;;5040590;28;20070;-83
2023/01/28 12:20:34;;;;;;;2.35;0.98;;;;;;;;;;5026579;28;20052;-85
2023/01/28 12:23:37;;;;;;;2.88;0.80;;;;;;;;;;5038347;28;20045;-84
2023/01/28 12:26:27;;;;;;;3.05;0.60;;;;;;;;;;5050790;28;20558;-83
2023/01/28 12:29:17;;;;;;;3.88;0.80;;;;;;;;;;5040422;28;20190;-84
2023/01/28 12:31:45;;;;;;;3.58;0.70;;;;;;;;;;5036359;28;20086;-85
2023/01/28 12:34:51;;;;;;;1.73;0.70;;;;;;;;;;5052382;28;20089;-84
2023/01/28 12:37:24;;;;;;;2.03;0.70;;;;;;;;;;5048545;28;20048;-85
2023/01/28 12:40:10;;;;;;;2.28;0.70;;;;;;;;;;5049609;28;20039;-85
2023/01/28 12:42:50;;;;;;;1.92;0.77;;;;;;;;;;5035056;28;20033;-83
2023/01/28 12:45:49;;;;;;;2.17;0.70;;;;;;;;;;5027479;28;20040;-83
2023/01/28 12:48:19;;;;;;;1.75;0.68;;;;;;;;;;4992655;28;20044;-85
2023/01/28 12:50:52;;;;;;;1.63;0.70;;;;;;;;;;5043379;28;20119;-84
2023/01/28 12:53:32;;;;;;;1.42;0.60;;;;;;;;;;5043863;28;20040;-85
2023/01/28 12:56:04;;;;;;;2.10;0.65;;;;;;;;;;5051539;28;20060;-83
2023/01/28 12:58:56;;;;;;;1.30;0.60;;;;;;;;;;5051151;28;20033;-84
2023/01/28 13:01:28;;;;;;;2.05;0.68;;;;;;;;;;5048678;28;20033;-85
2023/01/28 13:04:28;;;;;;;1.45;0.60;;;;;;;;;;5021089;28;20067;-83
2023/01/28 13:07:19;;;;;;;1.20;0.50;;;;;;;;;;5033247;28;20040;-87
2023/01/28 13:09:53;;;;;;;1.38;0.60;;;;;;;;;;5050217;28;20058;-85
2023/01/28 13:12:19;;;;;;;2.80;0.75;;;;;;;;;;5048891;28;20044;-85
2023/01/28 13:14:45;;;;;;;2.10;0.70;;;;;;;;;;5032809;28;20140;-84
2023/01/28 13:17:11;;;;;;;1.20;0.57;;;;;;;;;;5039925;28;20167;-85
2023/01/28 13:19:40;;;;;;;0.77;0.40;;;;;;;;;;5067474;28;20036;-85
2023/01/28 13:22:31;;;;;;;1.13;0.50;;;;;;;;;;5056944;28;20037;-87
2023/01/28 13:24:59;;;;;;;2.10;0.70;;;;;;;;;;5023844;28;20028;-85
2023/01/28 13:27:27;;;;;;;;;;;;;;;;;;5048860;28;20451;-84
2023/01/28 13:30:01;;;;;;;1.02;0.40;;;;;;;;;;5051546;28;19920;-84
2023/01/28 13:32:32;;;;;;;1.52;0.57;;;;;;;;;;5031982;28;20539;-82
2023/01/28 13:35:04;;;;;;;2.13;0.60;;;;;;;;;;5037413;28;20110;-87
2023/01/28 13:37:33;;;;;;;1.63;0.70;;;;;;;;;;4997495;28;20041;-87
2023/01/28 13:40:14;;;;;;;3.55;1.02;;;;;;;;;;5031730;28;20032;-87
2023/01/28 13:42:40;;;;;;;1.40;0.40;;;;;;;;;;5028114;28;20044;-87
2023/01/28 13:45:16;;;;;;;0.80;0.50;;;;;;;;;;5013656;28;20056;-86
2023/01/28 13:47:51;;;;;;;1.50;0.60;;;;;;;;;;5030056;28;20037;-87
2023/01/28 13:50:22;;;;;;;0.85;0.40;;;;;;;;;;5029997;28;20064;-86
2023/01/28 13:52:55;;;;;;;1.77;0.57;;;;;;;;;;5016348;28;20041;-85
2023/01/28 13:55:24;;;;;;;1.33;0.50;;;;;;;;;;5017345;28;20076;-87
2023/01/28 13:58:05;;;;;;;2.15;0.77;;;;;;;;;;5015278;28;20111;-86
2023/01/28 14:01:04;;;;;;;0.77;0.40;;;;;;;;;;5021938;28;20113;-85
2023/01/28 14:03:56;;;;;;;3.80;0.65;;;;;;;;;;5033205;28;20116;-85
2023/01/28 14:06:32;;;;;;;1.00;0.60;;;;;;;;;;5024716;28;20629;-83
2023/01/28 14:09:28;;;;;;;0.93;0.40;;;;;;;;;;5015304;28;20116;-79
2023/01/28 14:12:18;;;;;;;4.22;1.60;;;;;;;;;;5004623;28;20041;-79
2023/01/28 14:14:49;;;;;;;0.90;0.50;;;;;;;;;;5033973;28;20064;-80
2023/01/28 14:17:23;;;;;;;1.23;0.60;;;;;;;;;;5015938;28;20041;-81
2023/01/28 14:19:51;;;;;;;1.65;0.60;;;;;;;;;;5034907;28;20046;-80
2023/01/28 14:22:18;;;;;;;1.23;0.50;;;;;;;;;;5026087;28;20040;-79
2023/01/28 14:24:44;;;;;;;1.85;0.50;;;;;;;;;;5015284;28;20523;-80
2023/01/28 14:27:37;;;;;;;2.38;0.70;;;;;;;;;;5001636;28;20089;-80
2023/01/28 14:30:35;;;;;;;1.42;0.52;;;;;;;;;;5014906;28;20156;-80
2023/01/28 14:33:00;;;;;;;1.23;0.50;;;;;;;;;;4977138;28;20144;-80
2023/01/28 14:35:29;;;;;;;1.45;0.60;;;;;;;;;;5028566;28;20568;-80
2023/01/28 14:37:56;;;;;;;1.25;0.50;;;;;;;;;;5051429;28;20686;-88
2023/01/28 14:40:22;;;;;;;1.02;0.50;;;;;;;;;;5050673;28;20086;-85
2023/01/28 14:42:59;;;;;;;0.77;0.43;;;;;;;;;;5018723;28;20028;-86
2023/01/28 14:45:43;;;;;;;2.90;0.97;;;;;;;;;;5048445;28;20043;-86
2023/01/28 14:48:20;;;;;;;3.00;0.80;;;;;;;;;;5040986;28;20044;-87
2023/01/28 14:51:25;;;;;;;1.98;0.75;;;;;;;;;;5018705;28;20039;-86
2023/01/28 14:54:48;;;;;;;1.80;0.50;;;;;;;;;;5048539;28;21862;-87
2023/01/28 14:57:26;;;;;;;1.05;0.60;;;;;;;;;;4953674;28;20042;-87
2023/01/28 15:00:03;;;;;;;3.03;1.10;;;;;;;;;;4959860;28;20123;-86
2023/01/28 15:02:30;;;;;;;1.23;0.60;;;;;;;;;;4938827;28;20538;-87
2023/01/28 15:05:23;;;;;;;1.20;0.60;;;;;;;;;;4941128;28;20031;-87
2023/01/28 15:07:52;;;;;;;1.63;0.60;;;;;;;;;;4894579;28;20038;-85
2023/01/28 15:10:23;;;;;;;1.98;0.65;;;;;;;;;;4965659;28;20069;-86
2023/01/28 15:13:04;;;;;;;1.38;0.50;;;;;;;;;;4966989;28;20038;-84
2023/01/28 15:15:35;;;;;;;1.45;0.68;;;;;;;;;;4942481;28;20049;-83
2023/01/28 15:18:24;;;;;;;2.75;0.65;;;;;;;;;;4966948;28;20049;-81
2023/01/28 15:20:55;;;;;;;1.65;0.70;;;;;;;;;;4980397;28;20181;-84
2023/01/28 15:23:47;;;;;;;2.85;0.95;;;;;;;;;;4964525;28;20046;-84
2023/01/28 15:26:17;;;;;;;2.33;0.63;;;;;;;;;;4961636;28;21107;-83
2023/01/28 15:28:43;;;;;;;1.40;0.60;;;;;;;;;;5042622;28;20060;-83
2023/01/28 15:31:38;;;;;;;1.40;0.60;;;;;;;;;;5035542;28;20111;-83
2023/01/28 15:34:18;;;;;;;1.02;0.50;;;;;;;;;;5038196;28;20186;-82
2023/01/28 15:36:46;;;;;;;1.00;0.50;;;;;;;;;;5065342;28;20052;-84
2023/01/28 15:42:41;;;;;;;1.88;0.82;;;;;;;;;;4908624;28;20450;-87
2023/01/28 15:45:32;;;;;;;;;;;;;;;;;;;;;
2023/01/28 15:48:21;;;;;;;2.72;0.77;;;;;;;;;;4908424;28;20689;-87
2023/01/28 15:50:57;;;;;;;0.88;0.43;;;;;;;;;;4871886;28;20043;-87
2023/01/28 15:53:33;;;;;;;2.38;0.90;;;;;;;;;;4849341;29;20032;-87